Time;durP1;ratioP1;P1;durP2;ratioP2;P2;SDS_P1;SDS_P2;PMS_P1;PMS_P2;Temp;Humidity;BMP_temperature;BMP_pressure;BME280_temperature;BME280_humidity;BME280_pressure;Samples;Min_cycle;Max_cycle;Signal;HPM_P1;HPM_P2
2022/02/22 00:00:17;;;;;;;39.88;7.00;;;6.90;99.90;;;;;;6156350;23;20006;-89
2022/02/22 00:02:44;;;;;;;36.83;6.97;;;7.00;99.90;;;;;;6156209;23;20020;-89
2022/02/22 00:05:12;;;;;;;33.33;5.40;;;7.00;99.90;;;;;;6131892;23;20002;-89
2022/02/22 00:07:39;;;;;;;46.25;7.93;;;6.90;99.90;;;;;;6157332;23;20426;-89
2022/02/22 00:10:07;;;;;;;33.95;5.30;;;6.90;99.90;;;;;;6156691;23;20013;-89
2022/02/22 00:12:32;;;;;;;38.10;7.60;;;6.90;99.90;;;;;;6156237;23;20010;-89
2022/02/22 00:15:00;;;;;;;30.23;5.90;;;6.90;99.90;;;;;;6155760;23;20032;-89
2022/02/22 00:17:33;;;;;;;43.05;6.45;;;6.90;99.90;;;;;;6132151;23;20002;-89
2022/02/22 00:19:59;;;;;;;38.22;5.10;;;7.00;99.90;;;;;;6156395;23;20420;-89
2022/02/22 00:22:25;;;;;;;32.72;6.10;;;7.00;99.90;;;;;;6156383;23;20008;-89
2022/02/22 00:24:50;;;;;;;42.20;7.03;;;6.90;99.90;;;;;;6155916;23;19998;-89
2022/02/22 00:27:16;;;;;;;38.55;5.15;;;7.00;99.90;;;;;;6107490;23;20002;-89
2022/02/22 00:29:42;;;;;;;31.48;5.38;;;7.00;99.90;;;;;;6106948;23;20013;-89
2022/02/22 00:32:08;;;;;;;36.00;6.10;;;7.00;99.90;;;;;;6131964;23;20092;-89
2022/02/22 00:34:33;;;;;;;42.35;5.45;;;7.00;99.90;;;;;;6131284;23;20340;-89
2022/02/22 00:36:59;;;;;;;33.80;5.72;;;7.00;99.90;;;;;;6156052;23;20002;-89
2022/02/22 00:39:25;;;;;;;41.88;5.80;;;6.90;99.90;;;;;;6156047;23;20017;-89
2022/02/22 00:41:51;;;;;;;32.33;7.28;;;7.00;99.90;;;;;;6155928;23;20017;-89
2022/02/22 00:44:17;;;;;;;37.85;7.65;;;7.00;99.90;;;;;;6157123;23;20053;-89
2022/02/22 00:46:42;;;;;;;38.80;6.13;;;6.90;99.90;;;;;;6155919;23;20032;-89
2022/02/22 00:49:08;;;;;;;29.80;4.45;;;6.90;99.90;;;;;;6156160;23;20013;-89
2022/02/22 00:51:35;;;;;;;44.13;6.70;;;6.90;99.90;;;;;;6106918;23;20452;-90
2022/02/22 00:54:01;;;;;;;38.88;5.50;;;6.90;99.90;;;;;;6155759;23;20097;-89
2022/02/22 00:56:26;;;;;;;34.50;5.95;;;6.90;99.90;;;;;;6106845;23;20058;-89
2022/02/22 00:58:52;;;;;;;29.02;5.40;;;6.90;99.90;;;;;;6131338;23;20812;-89
2022/02/22 01:01:18;;;;;;;35.83;4.93;;;6.90;99.90;;;;;;6131583;23;20376;-89
2022/02/22 01:03:44;;;;;;;36.50;4.80;;;6.90;99.90;;;;;;6157214;23;20009;-89
2022/02/22 01:06:10;;;;;;;39.13;5.88;;;6.90;99.90;;;;;;6156203;23;20009;-89
2022/02/22 01:08:35;;;;;;;38.92;5.78;;;6.80;99.90;;;;;;6155437;23;20137;-90
2022/02/22 01:11:01;;;;;;;33.58;4.60;;;6.80;99.90;;;;;;6131120;23;20073;-89
2022/02/22 01:13:27;;;;;;;40.33;6.03;;;6.70;99.90;;;;;;6155915;23;20037;-89
2022/02/22 01:15:52;;;;;;;37.33;5.70;;;6.80;99.90;;;;;;6130951;23;20021;-89
2022/02/22 01:18:18;;;;;;;40.35;6.18;;;6.70;99.90;;;;;;6155364;23;20009;-90
2022/02/22 01:20:44;;;;;;;33.55;5.30;;;6.70;99.90;;;;;;6156979;23;20133;-90
2022/02/22 01:23:09;;;;;;;37.83;5.70;;;6.70;99.90;;;;;;6156060;23;20005;-90
2022/02/22 01:25:35;;;;;;;40.60;4.95;;;6.70;99.90;;;;;;6155862;23;20080;-90
2022/02/22 01:28:01;;;;;;;37.70;4.57;;;6.60;99.90;;;;;;6155798;23;20012;-89
2022/02/22 01:30:27;;;;;;;35.75;4.85;;;6.60;99.90;;;;;;6155467;23;20036;-89
2022/02/22 01:32:52;;;;;;;33.20;4.93;;;6.60;99.90;;;;;;6131052;23;20056;-89
2022/02/22 01:35:18;;;;;;;42.10;5.90;;;6.60;99.90;;;;;;6106753;23;20009;-89
2022/02/22 01:37:44;;;;;;;39.63;5.78;;;6.60;99.90;;;;;;6131049;23;20037;-89
2022/02/22 01:40:10;;;;;;;34.13;4.82;;;6.50;99.90;;;;;;6106528;23;20013;-89
2022/02/22 01:42:36;;;;;;;33.38;5.72;;;6.50;99.90;;;;;;6156193;23;20082;-89
2022/02/22 01:45:03;;;;;;;28.08;4.85;;;6.50;99.90;;;;;;6147453;23;20006;-89
2022/02/22 01:47:29;;;;;;;33.15;4.75;;;6.50;99.90;;;;;;6156147;23;20064;-89
2022/02/22 01:49:54;;;;;;;35.22;5.95;;;6.50;99.90;;;;;;6106231;23;20013;-89
2022/02/22 01:52:20;;;;;;;33.63;5.32;;;6.50;99.90;;;;;;6131152;23;20017;-89
2022/02/22 01:54:47;;;;;;;39.47;5.55;;;6.40;99.90;;;;;;6131048;23;20305;-89
2022/02/22 01:57:13;;;;;;;26.38;4.78;;;6.40;99.90;;;;;;6157243;23;20045;-89
2022/02/22 01:59:42;;;;;;;38.03;5.68;;;6.40;99.90;;;;;;6157467;23;20012;-89
2022/02/22 02:02:07;;;;;;;34.30;5.03;;;6.40;99.90;;;;;;6159816;23;20001;-89
2022/02/22 02:04:33;;;;;;;29.20;4.93;;;6.40;99.90;;;;;;6140389;23;20012;-88
2022/02/22 02:06:59;;;;;;;38.08;5.35;;;6.40;99.90;;;;;;6143508;23;20005;-89
2022/02/22 02:09:26;;;;;;;31.90;5.28;;;6.30;99.90;;;;;;6143454;23;20045;-89
2022/02/22 02:11:57;;;;;;;35.30;4.43;;;6.40;99.90;;;;;;6166698;23;20014;-90
2022/02/22 02:14:24;;;;;;;37.40;6.35;;;6.30;99.90;;;;;;6167437;23;20005;-89
2022/02/22 02:16:51;;;;;;;37.63;4.63;;;6.30;99.90;;;;;;6171118;23;19997;-89
2022/02/22 02:19:18;;;;;;;38.25;6.22;;;6.30;99.90;;;;;;6118016;23;20463;-89
2022/02/22 02:21:45;;;;;;;33.67;4.90;;;6.30;99.90;;;;;;6132347;23;20435;-90
2022/02/22 02:24:12;;;;;;;31.77;4.40;;;6.20;99.90;;;;;;6157013;23;20006;-89
2022/02/22 02:26:38;;;;;;;31.33;5.05;;;6.20;99.90;;;;;;6155648;23;20029;-89
2022/02/22 02:29:07;;;;;;;35.40;5.40;;;6.20;99.90;;;;;;6130874;23;20021;-89
2022/02/22 02:31:33;;;;;;;31.95;5.53;;;6.10;99.90;;;;;;6155536;23;20036;-89
2022/02/22 02:34:01;;;;;;;29.35;6.22;;;6.10;99.90;;;;;;6156784;23;20006;-88
2022/02/22 02:36:27;;;;;;;46.30;6.35;;;6.10;99.90;;;;;;6155401;23;20029;-89
2022/02/22 02:38:52;;;;;;;33.78;5.55;;;6.10;99.90;;;;;;6156390;23;20056;-89
2022/02/22 02:41:18;;;;;;;36.97;5.28;;;6.10;99.90;;;;;;6176669;23;20017;-89
2022/02/22 02:43:44;;;;;;;39.85;6.20;;;6.10;99.90;;;;;;6135377;23;20005;-89
2022/02/22 02:46:09;;;;;;;26.48;5.80;;;6.10;99.90;;;;;;6111529;23;20079;-88
2022/02/22 02:48:35;;;;;;;35.50;4.72;;;6.00;99.90;;;;;;6135913;23;20031;-89
2022/02/22 02:51:01;;;;;;;34.95;5.47;;;6.00;99.90;;;;;;6185926;23;20044;-89
2022/02/22 02:53:27;;;;;;;33.70;6.55;;;6.00;99.90;;;;;;6136893;23;20001;-89
2022/02/22 02:55:52;;;;;;;34.03;5.10;;;6.00;99.90;;;;;;6112649;23;20009;-89
2022/02/22 02:58:18;;;;;;;23.90;4.53;;;6.00;99.90;;;;;;6188265;23;20052;-89
2022/02/22 03:00:44;;;;;;;30.30;4.82;;;5.90;99.90;;;;;;6161629;23;20008;-90
2022/02/22 03:03:09;;;;;;;34.33;5.55;;;5.90;99.90;;;;;;6137264;23;20011;-89
2022/02/22 03:05:35;;;;;;;40.08;6.53;;;5.90;99.90;;;;;;6161453;23;20028;-89
2022/02/22 03:08:01;;;;;;;33.63;4.70;;;5.90;99.90;;;;;;6161179;23;20005;-87
2022/02/22 03:10:28;;;;;;;34.75;5.18;;;5.80;99.90;;;;;;6161901;23;20013;-89
2022/02/22 03:12:53;;;;;;;28.80;4.22;;;5.90;99.90;;;;;;6161770;23;20005;-88
2022/02/22 03:15:19;;;;;;;33.35;5.13;;;5.80;99.90;;;;;;6137679;23;20057;-88
2022/02/22 03:17:45;;;;;;;40.70;5.90;;;5.80;99.90;;;;;;6187778;23;20011;-88
2022/02/22 03:20:11;;;;;;;41.47;5.55;;;5.80;99.90;;;;;;6161426;23;20441;-89
2022/02/22 03:22:45;;;;;;;33.03;5.43;;;5.80;99.90;;;;;;6137050;23;20006;-88
2022/02/22 03:25:11;;;;;;;32.22;5.35;;;5.80;99.90;;;;;;6187770;23;20005;-88
2022/02/22 03:27:37;;;;;;;40.97;5.53;;;5.80;99.90;;;;;;6161182;23;20001;-88
2022/02/22 03:30:04;;;;;;;30.55;4.85;;;5.80;99.90;;;;;;6136928;23;20017;-88
2022/02/22 03:32:30;;;;;;;32.25;4.43;;;5.80;99.90;;;;;;6137018;23;20507;-88
2022/02/22 03:34:55;;;;;;;30.23;4.63;;;5.70;99.90;;;;;;6112386;23;20029;-88
2022/02/22 03:37:21;;;;;;;34.83;4.72;;;5.80;99.90;;;;;;6137009;23;20084;-88
2022/02/22 03:39:46;;;;;;;34.15;5.93;;;5.70;99.90;;;;;;6187296;23;20386;-89
2022/02/22 03:42:12;;;;;;;26.02;4.38;;;5.70;99.90;;;;;;6112253;23;20025;-88
2022/02/22 03:44:37;;;;;;;31.63;4.00;;;5.70;99.90;;;;;;6187797;23;20028;-89
2022/02/22 03:47:04;;;;;;;41.38;4.47;;;5.70;99.90;;;;;;6136997;23;20040;-88
2022/02/22 03:49:29;;;;;;;35.75;5.35;;;5.70;99.90;;;;;;6161530;23;20474;-89
2022/02/22 03:51:55;;;;;;;33.38;4.90;;;5.70;99.90;;;;;;6136771;23;20005;-90
2022/02/22 03:54:20;;;;;;;33.47;5.10;;;5.70;99.90;;;;;;6112775;23;20001;-89
2022/02/22 03:56:46;;;;;;;32.05;4.15;;;5.60;99.90;;;;;;6112099;23;20005;-89
2022/02/22 03:59:12;;;;;;;41.15;6.22;;;5.60;99.90;;;;;;6161418;23;20032;-89
2022/02/22 04:01:37;;;;;;;39.05;4.93;;;5.60;99.90;;;;;;6136508;23;20059;-89
2022/02/22 04:04:03;;;;;;;37.28;4.32;;;5.60;99.90;;;;;;6136716;23;20009;-89
2022/02/22 04:06:29;;;;;;;29.67;4.97;;;5.60;99.90;;;;;;6136920;23;20005;-89
2022/02/22 04:08:55;;;;;;;36.30;6.25;;;5.60;99.90;;;;;;6136495;23;20005;-89
2022/02/22 04:11:20;;;;;;;29.33;4.47;;;5.60;99.90;;;;;;6161485;23;20010;-89
2022/02/22 04:13:46;;;;;;;38.53;4.70;;;5.60;99.90;;;;;;6187253;23;20001;-88
2022/02/22 04:16:12;;;;;;;29.98;5.28;;;5.60;99.90;;;;;;6187275;23;20016;-89
2022/02/22 04:18:38;;;;;;;25.85;3.75;;;5.60;99.90;;;;;;6160777;23;20005;-89
2022/02/22 04:21:03;;;;;;;33.60;4.75;;;5.60;99.90;;;;;;6112007;23;20009;-89
2022/02/22 04:23:29;;;;;;;32.17;4.45;;;5.60;99.90;;;;;;6136679;23;20493;-89
2022/02/22 04:25:55;;;;;;;32.03;4.88;;;5.60;99.90;;;;;;6161588;23;20005;-89
2022/02/22 04:28:20;;;;;;;37.60;5.07;;;5.60;99.90;;;;;;6160889;23;20442;-89
2022/02/22 04:30:46;;;;;;;33.80;4.45;;;5.60;99.90;;;;;;6161096;23;20434;-89
2022/02/22 04:33:11;;;;;;;27.75;4.80;;;5.60;99.90;;;;;;6136419;23;20020;-89
2022/02/22 04:35:37;;;;;;;37.15;5.70;;;5.60;99.90;;;;;;6152073;23;20064;-89
2022/02/22 04:38:03;;;;;;;30.10;4.57;;;5.60;99.90;;;;;;6167919;23;20009;-89
2022/02/22 04:40:29;;;;;;;25.70;3.72;;;5.60;99.90;;;;;;6137553;23;20017;-89
2022/02/22 04:42:56;;;;;;;33.75;4.55;;;5.60;99.90;;;;;;6161737;23;20021;-89
2022/02/22 04:45:21;;;;;;;35.08;5.30;;;5.60;99.90;;;;;;6186899;23;20025;-89
2022/02/22 04:47:47;;;;;;;33.10;5.43;;;5.60;99.90;;;;;;6161028;23;20012;-89
2022/02/22 04:50:14;;;;;;;28.77;4.47;;;5.60;99.90;;;;;;6160620;23;20440;-89
2022/02/22 04:52:39;;;;;;;33.03;5.05;;;5.50;99.90;;;;;;6136435;23;20060;-89
2022/02/22 04:55:06;;;;;;;34.10;4.30;;;5.60;99.90;;;;;;6160953;23;20004;-89
2022/02/22 04:57:36;;;;;;;39.75;5.07;;;5.60;99.90;;;;;;6136387;23;20423;-89
2022/02/22 05:00:09;;;;;;;34.47;4.57;;;5.60;99.90;;;;;;6136376;23;20431;-89
2022/02/22 05:02:35;;;;;;;34.10;5.05;;;5.60;99.90;;;;;;6160814;23;20423;-89
2022/02/22 05:05:01;;;;;;;33.25;4.78;;;5.50;99.90;;;;;;6160898;23;20009;-90
2022/02/22 05:07:27;;;;;;;31.58;4.05;;;5.50;99.90;;;;;;6186977;23;20004;-90
2022/02/22 05:09:52;;;;;;;31.48;4.38;;;5.50;99.90;;;;;;6112007;23;20516;-89
2022/02/22 05:12:18;;;;;;;30.02;5.10;;;5.50;99.90;;;;;;6135953;23;20040;-89
2022/02/22 05:14:44;;;;;;;31.85;4.38;;;5.50;99.90;;;;;;6136324;23;20088;-90
2022/02/22 05:17:09;;;;;;;29.42;3.83;;;5.50;99.90;;;;;;6135871;23;20001;-89
2022/02/22 05:19:35;;;;;;;30.30;4.22;;;5.50;99.90;;;;;;6111969;23;20009;-89
2022/02/22 05:22:00;;;;;;;33.30;4.43;;;5.50;99.90;;;;;;6135902;23;20005;-90
2022/02/22 05:24:26;;;;;;;31.17;4.30;;;5.50;99.90;;;;;;6160423;23;20052;-89
2022/02/22 05:26:52;;;;;;;24.02;4.75;;;5.50;99.90;;;;;;6137301;23;20001;-89
2022/02/22 05:29:17;;;;;;;37.97;5.43;;;5.50;99.90;;;;;;6141315;23;20009;-89
2022/02/22 05:31:43;;;;;;;32.45;4.97;;;5.50;99.90;;;;;;6166552;23;20020;-89
2022/02/22 05:34:09;;;;;;;27.05;5.07;;;5.50;99.90;;;;;;6191920;23;20005;-89
2022/02/22 05:36:35;;;;;;;25.48;3.42;;;5.40;99.90;;;;;;6166274;23;19997;-89
2022/02/22 05:39:01;;;;;;;41.25;5.88;;;5.40;99.90;;;;;;6141916;23;20009;-90
2022/02/22 05:41:26;;;;;;;27.85;3.88;;;5.40;99.90;;;;;;6157772;23;20014;-90
2022/02/22 05:43:52;;;;;;;27.85;5.13;;;5.40;99.90;;;;;;6131732;23;20002;-89
2022/02/22 05:46:20;;;;;;;34.45;6.05;;;5.40;99.90;;;;;;6155559;23;20092;-90
2022/02/22 05:48:45;;;;;;;31.58;4.45;;;5.40;99.90;;;;;;6155141;23;19997;-90
2022/02/22 05:51:11;;;;;;;32.72;4.85;;;5.40;99.90;;;;;;6155357;23;20016;-90
2022/02/22 05:53:38;;;;;;;27.80;4.70;;;5.40;99.90;;;;;;6155942;23;20005;-89
2022/02/22 05:56:04;;;;;;;36.25;5.00;;;5.40;99.90;;;;;;6155494;23;20320;-89
2022/02/22 05:58:30;;;;;;;33.50;4.13;;;5.30;99.90;;;;;;6155282;23;20006;-89
2022/02/22 06:00:56;;;;;;;34.15;4.45;;;5.30;99.90;;;;;;6155955;23;20013;-90
2022/02/22 06:03:22;;;;;;;35.50;4.72;;;5.30;99.90;;;;;;6132273;23;20009;-90
2022/02/22 06:05:47;;;;;;;30.83;4.90;;;5.30;99.90;;;;;;6131712;23;20339;-89
2022/02/22 06:08:13;;;;;;;33.20;6.72;;;5.30;99.90;;;;;;6131074;23;20432;-90
2022/02/22 06:10:38;;;;;;;27.25;4.75;;;5.30;99.90;;;;;;6131211;23;20068;-89
2022/02/22 06:13:04;;;;;;;36.85;4.85;;;5.30;99.90;;;;;;6157364;23;20005;-89
2022/02/22 06:15:30;;;;;;;31.92;5.03;;;5.20;99.90;;;;;;6156689;23;20005;-90
2022/02/22 06:17:55;;;;;;;36.00;4.93;;;5.30;99.90;;;;;;6155164;23;20029;-87
2022/02/22 06:20:21;;;;;;;27.80;4.53;;;5.30;99.90;;;;;;6130756;23;20009;-89
2022/02/22 06:22:47;;;;;;;31.60;4.85;;;5.30;99.90;;;;;;6154573;23;20048;-89
2022/02/22 06:25:13;;;;;;;37.28;6.05;;;5.20;99.90;;;;;;6154664;23;20096;-89
2022/02/22 06:27:47;;;;;;;45.25;5.85;;;5.20;99.90;;;;;;6155950;23;20001;-88
2022/02/22 06:30:13;;;;;;;29.08;3.92;;;5.20;99.90;;;;;;6159926;23;20001;-90
2022/02/22 06:32:39;;;;;;;26.85;3.88;;;5.20;99.90;;;;;;6132852;23;20381;-89
2022/02/22 06:35:05;;;;;;;27.75;5.40;;;5.20;99.90;;;;;;6158412;23;20397;-89
2022/02/22 06:37:31;;;;;;;25.20;4.00;;;5.20;99.90;;;;;;6132709;23;20821;-89
2022/02/22 06:39:58;;;;;;;35.88;4.90;;;5.10;99.90;;;;;;6111161;23;20105;-89
2022/02/22 06:42:24;;;;;;;24.38;4.57;;;5.10;99.90;;;;;;6115825;23;20005;-89
2022/02/22 06:44:50;;;;;;;28.80;4.13;;;5.10;99.90;;;;;;6139178;23;20032;-90
2022/02/22 06:47:16;;;;;;;34.25;5.78;;;5.10;99.90;;;;;;6140336;23;20044;-89
2022/02/22 06:49:42;;;;;;;27.25;4.10;;;5.10;99.90;;;;;;6191241;23;20036;-89
2022/02/22 06:52:08;;;;;;;34.30;5.05;;;5.10;99.90;;;;;;6163919;23;20001;-89
2022/02/22 06:54:34;;;;;;;28.13;4.45;;;5.10;99.90;;;;;;6168504;23;20005;-89
2022/02/22 06:56:59;;;;;;;23.10;3.53;;;5.10;99.90;;;;;;6176247;23;20005;-89
2022/02/22 06:59:25;;;;;;;23.95;4.07;;;5.00;99.90;;;;;;6167663;23;20036;-90
2022/02/22 07:01:51;;;;;;;26.15;4.35;;;5.00;99.90;;;;;;6163798;23;20060;-89
2022/02/22 07:04:16;;;;;;;25.38;4.15;;;5.00;99.90;;;;;;6164522;23;19997;-90
2022/02/22 07:06:42;;;;;;;26.70;3.75;;;5.00;99.90;;;;;;6162076;23;20328;-87
2022/02/22 07:09:08;;;;;;;30.90;4.75;;;5.00;99.90;;;;;;6114618;23;20016;-90
2022/02/22 07:11:34;;;;;;;26.48;3.80;;;5.00;99.90;;;;;;6163436;23;20056;-91
2022/02/22 07:13:59;;;;;;;25.33;4.47;;;5.10;99.90;;;;;;6138154;23;20015;-87
2022/02/22 07:16:25;;;;;;;30.10;4.15;;;5.10;99.90;;;;;;6162561;23;20033;-89
2022/02/22 07:18:52;;;;;;;28.35;3.90;;;5.10;99.90;;;;;;6162446;23;19997;-89
2022/02/22 07:21:17;;;;;;;37.40;5.03;;;5.10;99.90;;;;;;6162132;23;20412;-90
2022/02/22 07:23:43;;;;;;;31.77;3.53;;;5.10;99.90;;;;;;6138608;23;20012;-90
2022/02/22 07:26:09;;;;;;;32.35;4.45;;;5.20;99.90;;;;;;6138095;23;20005;-90
2022/02/22 07:28:34;;;;;;;32.35;5.57;;;5.20;99.90;;;;;;6113602;23;20011;-90
2022/02/22 07:31:06;;;;;;;22.55;3.08;;;5.20;99.90;;;;;;6138278;23;20068;-89
2022/02/22 07:33:33;;;;;;;24.85;4.95;;;5.20;99.90;;;;;;6161793;23;20029;-90
2022/02/22 07:35:59;;;;;;;22.52;3.58;;;5.20;99.90;;;;;;6162230;23;20059;-89
2022/02/22 07:38:28;;;;;;;28.70;4.57;;;5.30;99.90;;;;;;6162115;23;19997;-90
2022/02/22 07:40:54;;;;;;;19.58;3.33;;;5.30;99.90;;;;;;6138260;23;20039;-90
2022/02/22 07:43:20;;;;;;;23.85;4.75;;;5.30;99.90;;;;;;6136775;23;20038;-90
2022/02/22 07:45:46;;;;;;;30.17;4.22;;;5.30;99.90;;;;;;6161308;23;20372;-89
2022/02/22 07:48:12;;;;;;;23.08;3.88;;;5.30;99.90;;;;;;6161116;23;20025;-89
2022/02/22 07:50:38;;;;;;;21.42;3.53;;;5.40;99.90;;;;;;6136260;23;20013;-90
2022/02/22 07:53:05;;;;;;;36.95;3.80;;;5.30;99.90;;;;;;6161192;23;20435;-90
2022/02/22 07:55:30;;;;;;;31.05;4.72;;;5.40;99.90;;;;;;6161008;23;20092;-90
2022/02/22 07:57:56;;;;;;;26.30;4.03;;;5.40;99.90;;;;;;6160895;23;20032;-90
2022/02/22 08:00:22;;;;;;;22.23;3.85;;;5.40;99.90;;;;;;6159674;23;20009;-90
2022/02/22 08:02:47;;;;;;;24.48;3.80;;;5.50;99.90;;;;;;6187387;23;20004;-90
2022/02/22 08:05:13;;;;;;;21.88;3.45;;;5.50;99.90;;;;;;6161678;23;20009;-90
2022/02/22 08:07:39;;;;;;;24.55;3.30;;;5.50;99.90;;;;;;6187553;23;20005;-90
2022/02/22 08:10:06;;;;;;;21.00;3.22;;;5.60;99.90;;;;;;6161551;23;20443;-88
2022/02/22 08:12:32;;;;;;;20.50;5.93;;;5.60;99.90;;;;;;6161231;23;20009;-86
2022/02/22 08:14:58;;;;;;;23.50;3.97;;;5.70;99.90;;;;;;6186251;23;20007;-87
2022/02/22 08:17:23;;;;;;;37.13;5.30;;;5.80;99.90;;;;;;6161442;23;20009;-88
2022/02/22 08:19:49;;;;;;;30.48;4.38;;;5.80;99.90;;;;;;6137215;23;20086;-87
2022/02/22 08:22:15;;;;;;;20.13;3.80;;;5.90;99.90;;;;;;6138082;23;20001;-87
2022/02/22 08:24:40;;;;;;;27.77;4.20;;;5.90;99.90;;;;;;6162370;23;20009;-88
2022/02/22 08:27:06;;;;;;;20.95;4.25;;;6.00;99.90;;;;;;6137622;23;20005;-88
2022/02/22 08:29:32;;;;;;;21.13;5.10;;;6.10;99.90;;;;;;6138435;23;20044;-89
2022/02/22 08:31:58;;;;;;;21.75;4.40;;;6.10;99.90;;;;;;6113025;23;20431;-88
2022/02/22 08:34:24;;;;;;;25.20;4.30;;;6.10;99.90;;;;;;6162048;23;20005;-92
2022/02/22 08:36:49;;;;;;;23.77;4.18;;;6.20;99.90;;;;;;6137547;23;20438;-89
2022/02/22 08:39:15;;;;;;;24.67;4.60;;;6.20;99.90;;;;;;6137053;23;20015;-88
2022/02/22 08:41:42;;;;;;;24.23;5.10;;;6.30;99.90;;;;;;6160561;23;20013;-90
2022/02/22 08:44:09;;;;;;;27.00;4.65;;;6.30;99.90;;;;;;6161575;23;20079;-89
2022/02/22 08:46:35;;;;;;;28.80;4.93;;;6.30;99.90;;;;;;6136252;23;20012;-88
2022/02/22 08:49:01;;;;;;;29.75;5.72;;;6.40;99.90;;;;;;6136202;23;20013;-87
2022/02/22 08:51:27;;;;;;;27.73;4.95;;;6.50;99.90;;;;;;6170127;23;20012;-92
2022/02/22 08:53:52;;;;;;;28.98;5.47;;;6.50;99.90;;;;;;6159922;23;20045;-90
2022/02/22 08:56:18;;;;;;;27.90;5.65;;;6.50;99.90;;;;;;6208923;23;20016;-92
2022/02/22 08:58:44;;;;;;;30.13;5.75;;;6.60;99.90;;;;;;6158528;23;20016;-91
2022/02/22 09:01:09;;;;;;;34.00;5.40;;;6.70;99.90;;;;;;6209505;23;19997;-92
2022/02/22 09:03:35;;;;;;;29.63;6.10;;;6.70;99.90;;;;;;6156821;23;20005;-91
2022/02/22 09:06:01;;;;;;;28.27;5.88;;;6.70;99.90;;;;;;6121003;23;20419;-92
2022/02/22 09:08:30;;;;;;;29.58;5.85;;;6.80;99.90;;;;;;6138217;23;20005;-92
2022/02/22 09:10:56;;;;;;;27.20;5.47;;;6.80;99.90;;;;;;6137041;23;20024;-91
2022/02/22 09:13:22;;;;;;;26.27;5.50;;;6.90;99.90;;;;;;6138090;23;20009;-93
2022/02/22 09:15:49;;;;;;;36.95;6.68;;;6.90;99.90;;;;;;6163543;23;20009;-94
2022/02/22 09:18:16;;;;;;;35.58;6.22;;;7.00;99.90;;;;;;6179560;23;20001;-93
2022/02/22 09:20:42;;;;;;;28.95;6.55;;;7.00;99.90;;;;;;6160937;23;20028;-93
2022/02/22 09:23:08;;;;;;;31.00;6.03;;;7.10;99.90;;;;;;6160900;23;20008;-93
2022/02/22 09:25:35;;;;;;;30.88;5.65;;;7.10;99.90;;;;;;6160829;23;20330;-94
2022/02/22 09:28:03;;;;;;;28.20;4.95;;;7.10;99.90;;;;;;6186575;23;20452;-93
2022/02/22 09:30:31;;;;;;;27.92;5.60;;;7.20;99.90;;;;;;6186973;23;20008;-91
2022/02/22 09:32:56;;;;;;;27.45;5.70;;;7.20;99.90;;;;;;6161769;23;20001;-93
2022/02/22 09:35:24;;;;;;;20.00;4.95;;;7.30;99.90;;;;;;6160804;23;20002;-90
2022/02/22 09:37:51;;;;;;;25.38;5.18;;;7.30;99.90;;;;;;6186371;23;20008;-89
2022/02/22 09:40:17;;;;;;;22.17;5.10;;;7.30;99.90;;;;;;6159845;23;20079;-90
2022/02/22 09:42:44;;;;;;;25.17;5.45;;;7.30;99.90;;;;;;6135815;23;20009;-90
2022/02/22 09:45:10;;;;;;;25.95;5.40;;;7.40;99.90;;;;;;6160359;23;20024;-89
2022/02/22 09:47:37;;;;;;;24.67;5.40;;;7.40;99.90;;;;;;6160494;23;20012;-88
2022/02/22 09:50:04;;;;;;;30.25;5.60;;;7.40;99.90;;;;;;6186897;23;20005;-88
2022/02/22 09:52:30;;;;;;;23.45;5.82;;;7.50;99.90;;;;;;6135997;23;20009;-90
2022/02/22 09:54:55;;;;;;;36.15;6.22;;;7.50;99.90;;;;;;6160800;23;20301;-88
2022/02/22 09:57:21;;;;;;;36.67;7.15;;;7.50;99.90;;;;;;6160126;23;20080;-88
2022/02/22 09:59:47;;;;;;;28.20;5.97;;;7.50;99.90;;;;;;6159777;23;20005;-88
2022/02/22 10:02:13;;;;;;;19.63;5.55;;;7.50;99.90;;;;;;6137155;23;20005;-88
2022/02/22 10:04:46;;;;;;;32.00;5.30;;;7.50;99.90;;;;;;6112774;23;20005;-89
2022/02/22 10:07:13;;;;;;;23.73;5.10;;;7.50;99.90;;;;;;6162096;23;19997;-88
2022/02/22 10:09:55;;;;;;;29.65;5.90;;;7.60;99.90;;;;;;6188017;23;20009;-89
2022/02/22 10:12:35;;;;;;;30.35;5.88;;;7.60;99.90;;;;;;6188393;23;20001;-89
2022/02/22 10:15:03;;;;;;;27.95;5.45;;;7.60;99.90;;;;;;6161991;23;20005;-89
2022/02/22 10:17:39;;;;;;;29.00;5.95;;;7.60;99.90;;;;;;6188311;23;20001;-88
2022/02/22 10:20:08;;;;;;;27.48;5.72;;;7.60;99.90;;;;;;6162293;23;20005;-87
2022/02/22 10:22:44;;;;;;;31.88;5.60;;;7.70;99.90;;;;;;6162035;23;20001;-89
2022/02/22 10:25:11;;;;;;;22.92;4.78;;;7.70;99.90;;;;;;6165129;23;20027;-89
2022/02/22 10:27:42;;;;;;;29.38;5.47;;;7.70;99.90;;;;;;6161524;23;20005;-89
2022/02/22 10:30:22;;;;;;;27.10;5.07;;;7.70;99.90;;;;;;6161593;23;20008;-90
2022/02/22 10:32:48;;;;;;;25.35;6.15;;;7.70;99.90;;;;;;6161997;23;20017;-89
2022/02/22 10:35:14;;;;;;;23.38;6.05;;;7.80;99.90;;;;;;6161983;23;20077;-89
2022/02/22 10:37:39;;;;;;;25.15;5.20;;;7.80;99.90;;;;;;6137082;23;20076;-89
2022/02/22 10:40:06;;;;;;;30.17;5.85;;;7.80;99.90;;;;;;6113115;23;20021;-89
2022/02/22 10:42:36;;;;;;;33.75;6.95;;;7.80;99.90;;;;;;6113299;23;20040;-89
2022/02/22 10:45:11;;;;;;;25.02;5.25;;;7.80;99.90;;;;;;6136809;23;20005;-88
2022/02/22 10:47:42;;;;;;;19.42;4.43;;;7.90;99.90;;;;;;6161940;23;20005;-89
2022/02/22 10:50:09;;;;;;;24.45;5.93;;;7.80;99.90;;;;;;6188050;23;20028;-89
2022/02/22 10:52:34;;;;;;;33.15;5.13;;;7.90;99.90;;;;;;6137191;23;20009;-89
2022/02/22 10:55:02;;;;;;;25.90;6.00;;;7.90;99.90;;;;;;6136999;23;20009;-89
2022/02/22 10:57:28;;;;;;;28.98;6.07;;;7.90;99.90;;;;;;6188122;23;20005;-90
2022/02/22 10:59:54;;;;;;;27.92;4.90;;;7.90;99.90;;;;;;6137467;23;20013;-90
2022/02/22 11:02:20;;;;;;;25.55;5.43;;;7.90;99.90;;;;;;6162040;23;20002;-89
2022/02/22 11:04:46;;;;;;;27.85;6.65;;;8.00;99.90;;;;;;6161238;23;20012;-88
2022/02/22 11:07:18;;;;;;;25.77;4.80;;;8.00;99.90;;;;;;6186066;23;20447;-88
2022/02/22 11:09:47;;;;;;;23.98;4.97;;;7.90;99.90;;;;;;6187482;23;20013;-90
2022/02/22 11:12:25;;;;;;;27.25;6.32;;;8.00;99.90;;;;;;6161293;23;20033;-88
2022/02/22 11:15:02;;;;;;;26.83;5.70;;;8.00;99.90;;;;;;6187450;23;20008;-88
2022/02/22 11:17:28;;;;;;;25.90;5.00;;;8.00;99.90;;;;;;6161458;23;20005;-89
2022/02/22 11:19:56;;;;;;;29.30;6.43;;;8.00;99.90;;;;;;6161368;23;20047;-89
2022/02/22 11:22:25;;;;;;;28.73;5.38;;;8.10;99.90;;;;;;6113398;23;20001;-88
2022/02/22 11:25:00;;;;;;;27.40;6.20;;;8.10;99.90;;;;;;6161505;23;20001;-89
2022/02/22 11:27:32;;;;;;;25.27;5.20;;;8.10;99.90;;;;;;6161321;23;20005;-90
2022/02/22 11:29:59;;;;;;;39.00;6.78;;;8.10;99.90;;;;;;6160804;23;20335;-87
2022/02/22 11:32:25;;;;;;;27.40;6.53;;;8.10;99.90;;;;;;6161398;23;20438;-89
2022/02/22 11:34:51;;;;;;;30.92;5.35;;;8.10;99.90;;;;;;6160994;23;20005;-88
2022/02/22 11:37:28;;;;;;;25.05;6.05;;;8.20;99.90;;;;;;6166550;23;20001;-88
2022/02/22 11:39:55;;;;;;;34.38;5.82;;;8.20;99.90;;;;;;6162640;23;20051;-89
2022/02/22 11:42:31;;;;;;;34.20;5.90;;;8.20;99.90;;;;;;6138436;23;20009;-90
2022/02/22 11:45:05;;;;;;;28.95;5.90;;;8.20;99.90;;;;;;6187645;23;20051;-91
2022/02/22 11:47:32;;;;;;;29.27;6.57;;;8.20;99.90;;;;;;6161569;23;20051;-90
2022/02/22 11:49:59;;;;;;;35.33;6.15;;;8.20;99.90;;;;;;6136777;23;20009;-91
2022/02/22 11:52:50;;;;;;;26.90;5.22;;;8.20;99.90;;;;;;6161176;23;20013;-90
2022/02/22 11:55:19;;;;;;;31.92;6.53;;;8.20;99.90;;;;;;6161317;23;20056;-89
2022/02/22 11:57:49;;;;;;;25.33;6.53;;;8.20;99.90;;;;;;6160803;23;20024;-91
2022/02/22 12:00:31;;;;;;;33.03;7.18;;;8.10;99.90;;;;;;6161061;23;20001;-90
2022/02/22 12:03:04;;;;;;;;;;;8.10;99.90;;;;;;6161534;23;20024;-90
2022/02/22 12:05:40;;;;;;;33.58;8.00;;;8.10;99.90;;;;;;6160661;23;19907;-89
2022/02/22 12:08:10;;;;;;;30.50;7.95;;;8.10;99.90;;;;;;6186913;23;20059;-89
2022/02/22 12:10:47;;;;;;;39.28;6.72;;;8.10;99.90;;;;;;6161029;23;20001;-89
2022/02/22 12:13:17;;;;;;;35.20;6.85;;;8.20;99.90;;;;;;6186941;23;20008;-90
2022/02/22 12:15:44;;;;;;;35.70;7.47;;;8.20;99.90;;;;;;6164056;23;20005;-91
2022/02/22 12:18:16;;;;;;;28.25;5.97;;;8.10;99.90;;;;;;6206754;23;20001;-92
2022/02/22 12:20:44;;;;;;;31.30;7.13;;;8.20;99.90;;;;;;6210948;23;20004;-90
2022/02/22 12:23:39;;;;;;;38.00;8.48;;;8.20;99.90;;;;;;6208848;23;20024;-91
2022/02/22 12:26:07;;;;;;;31.50;8.27;;;8.20;99.90;;;;;;6177764;23;20032;-90
2022/02/22 12:28:45;;;;;;;36.55;7.75;;;8.30;99.90;;;;;;6181048;23;20009;-90
2022/02/22 12:31:13;;;;;;;32.35;7.22;;;8.30;99.90;;;;;;6169985;23;20064;-89
2022/02/22 12:33:39;;;;;;;33.05;8.32;;;8.30;99.90;;;;;;6142474;23;20005;-89
2022/02/22 12:36:14;;;;;;;32.22;7.75;;;8.40;99.90;;;;;;6139146;23;20013;-90
2022/02/22 12:38:39;;;;;;;30.02;7.60;;;8.40;99.90;;;;;;6162519;23;20001;-91
2022/02/22 12:41:15;;;;;;;33.47;7.40;;;8.50;99.90;;;;;;6136765;23;20039;-92
2022/02/22 12:43:49;;;;;;;36.05;8.10;;;8.50;99.90;;;;;;6163093;23;20025;-91
2022/02/22 12:46:17;;;;;;;37.50;8.55;;;8.60;99.90;;;;;;6161763;23;19997;-91